createdAt,value
2023-04-24T00:01:40.570Z,4.63
2023-04-24T00:04:12.172Z,3.83
2023-04-24T00:06:39.792Z,3.00
2023-04-24T00:09:06.693Z,3.17
2023-04-24T00:11:33.549Z,3.10
2023-04-24T00:14:00.430Z,5.63
2023-04-24T00:16:27.384Z,4.20
2023-04-24T00:18:54.600Z,10.70
2023-04-24T00:21:21.631Z,3.73
2023-04-24T00:23:49.016Z,4.03
2023-04-24T00:26:15.967Z,4.90
2023-04-24T00:28:42.854Z,4.70
2023-04-24T00:31:09.717Z,4.60
2023-04-24T00:33:36.910Z,5.87
2023-04-24T00:36:03.891Z,4.40
2023-04-24T00:38:30.712Z,5.30
2023-04-24T00:40:57.594Z,4.77
2023-04-24T00:43:24.572Z,4.80
2023-04-24T00:45:51.515Z,5.53
2023-04-24T00:48:19.029Z,5.60
2023-04-24T00:50:46.713Z,8.63
2023-04-24T00:53:13.616Z,5.70
2023-04-24T00:55:40.752Z,6.20
2023-04-24T00:58:07.798Z,5.53
2023-04-24T01:00:35.113Z,7.43
2023-04-24T01:03:05.415Z,6.40
2023-04-24T01:05:32.886Z,5.50
2023-04-24T01:08:00.515Z,6.17
2023-04-24T01:10:30.373Z,7.17
2023-04-24T01:12:57.550Z,6.87
2023-04-24T01:15:24.394Z,6.00
2023-04-24T01:17:51.258Z,6.07
2023-04-24T01:20:18.672Z,5.07
2023-04-24T01:22:45.735Z,6.10
2023-04-24T01:25:12.616Z,8.43
2023-04-24T01:27:39.483Z,6.70
2023-04-24T01:30:07.911Z,5.73
2023-04-24T01:32:35.722Z,7.63
2023-04-24T01:35:03.412Z,6.80
2023-04-24T01:37:30.463Z,6.63
2023-04-24T01:39:57.442Z,7.70
2023-04-24T01:42:24.412Z,12.03
2023-04-24T01:44:52.355Z,8.17
2023-04-24T01:47:19.245Z,10.90
2023-04-24T01:49:48.971Z,11.33
2023-04-24T01:52:16.122Z,12.50
2023-04-24T01:54:42.987Z,8.40
2023-04-24T01:57:10.084Z,9.50
2023-04-24T01:59:37.568Z,8.47
2023-04-24T02:02:04.910Z,10.57
2023-04-24T02:04:31.800Z,15.90
2023-04-24T02:06:58.865Z,12.00
2023-04-24T02:09:26.083Z,18.47
2023-04-24T02:11:53.003Z,20.73
2023-04-24T02:14:19.921Z,15.83
2023-04-24T02:16:47.033Z,12.53
2023-04-24T02:19:14.081Z,14.50
2023-04-24T02:21:41.005Z,15.10
2023-04-24T02:24:07.852Z,17.63
2023-04-24T02:26:34.709Z,16.33
2023-04-24T02:29:01.657Z,13.47
2023-04-24T02:31:28.827Z,26.93
2023-04-24T02:33:55.675Z,12.53
2023-04-24T02:36:22.647Z,14.27
2023-04-24T02:38:49.538Z,11.20
2023-04-24T02:41:16.362Z,13.23
2023-04-24T02:43:43.240Z,15.07
2023-04-24T02:46:10.222Z,18.50
2023-04-24T02:48:37.119Z,18.93
2023-04-24T02:51:04.386Z,19.43
2023-04-24T02:53:31.888Z,14.27
2023-04-24T02:55:58.686Z,17.03
2023-04-24T02:58:26.101Z,13.60
2023-04-24T03:00:57.052Z,11.10
2023-04-24T03:03:25.844Z,22.03
2023-04-24T03:05:52.857Z,13.77
2023-04-24T03:08:19.969Z,18.03
2023-04-24T03:10:48.280Z,14.73
2023-04-24T03:13:16.193Z,19.50
2023-04-24T03:15:43.110Z,18.90
2023-04-24T03:18:10.110Z,10.77
2023-04-24T03:20:38.655Z,16.17
2023-04-24T03:23:05.572Z,23.90
2023-04-24T03:25:32.489Z,16.53
2023-04-24T03:27:59.477Z,16.17
2023-04-24T03:30:26.331Z,11.03
2023-04-24T03:32:53.233Z,19.30
2023-04-24T03:35:20.157Z,17.70
2023-04-24T03:37:47.152Z,14.80
2023-04-24T03:40:13.994Z,15.80
2023-04-24T03:42:40.858Z,13.93
2023-04-24T03:45:08.597Z,11.60
2023-04-24T03:47:35.487Z,11.80
2023-04-24T03:50:02.556Z,17.37
2023-04-24T03:52:29.411Z,17.80
2023-04-24T03:54:56.752Z,10.33
2023-04-24T03:57:23.573Z,10.87
2023-04-24T03:59:50.582Z,10.03
2023-04-24T04:02:17.615Z,11.93
2023-04-24T04:04:44.679Z,10.43
2023-04-24T04:07:12.396Z,9.80
2023-04-24T04:09:39.256Z,8.77
2023-04-24T04:12:06.246Z,18.20
2023-04-24T04:14:33.065Z,10.43
2023-04-24T04:16:59.918Z,10.80
2023-04-24T04:19:26.810Z,9.73
2023-04-24T04:21:54.637Z,9.87
2023-04-24T04:24:25.320Z,8.90
2023-04-24T04:26:53.379Z,8.60
2023-04-24T04:29:20.238Z,9.13
2023-04-24T04:31:47.209Z,10.93
2023-04-24T04:34:15.309Z,9.97
2023-04-24T04:36:42.977Z,7.67
2023-04-24T04:39:09.932Z,10.50
2023-04-24T04:41:36.833Z,9.17
2023-04-24T04:44:05.846Z,8.00
2023-04-24T04:46:35.927Z,8.27
2023-04-24T04:49:03.327Z,13.03
2023-04-24T04:51:30.436Z,10.70
2023-04-24T04:53:57.226Z,9.33
2023-04-24T04:56:24.091Z,10.10
2023-04-24T04:58:51.027Z,9.50
2023-04-24T05:01:18.578Z,8.50
2023-04-24T05:03:45.784Z,12.10
2023-04-24T05:06:12.865Z,9.67
2023-04-24T05:08:39.919Z,9.50
2023-04-24T05:11:07.487Z,10.17
2023-04-24T05:13:40.708Z,9.00
2023-04-24T05:16:08.472Z,10.60
2023-04-24T05:18:35.729Z,8.33
2023-04-24T05:21:02.670Z,9.33
2023-04-24T05:23:29.646Z,12.60
2023-04-24T05:25:56.666Z,8.33
2023-04-24T05:28:23.535Z,9.67
2023-04-24T05:30:50.900Z,12.47
2023-04-24T05:33:17.764Z,9.97
2023-04-24T05:35:47.995Z,10.73
2023-04-24T05:38:15.512Z,19.43
2023-04-24T05:40:42.512Z,13.03
2023-04-24T05:43:09.416Z,10.80
2023-04-24T05:45:37.239Z,9.33
2023-04-24T05:48:04.745Z,8.83
2023-04-24T05:50:31.752Z,8.13
2023-04-24T05:53:03.130Z,10.57
2023-04-24T05:55:30.149Z,6.87
2023-04-24T05:57:57.168Z,9.50
2023-04-24T06:00:25.744Z,13.80
2023-04-24T06:02:54.276Z,9.03
2023-04-24T06:05:21.651Z,9.00
2023-04-24T06:07:49.366Z,7.80
2023-04-24T06:10:16.737Z,8.13
2023-04-24T06:12:43.826Z,9.60
2023-04-24T06:17:42.100Z,7.43
2023-04-24T06:20:09.465Z,7.30
2023-04-24T06:22:36.586Z,5.97
2023-04-24T06:25:03.749Z,5.80
2023-04-24T06:27:30.679Z,5.57
2023-04-24T06:29:57.469Z,4.70
2023-04-24T06:32:25.387Z,4.90
2023-04-24T06:34:53.771Z,6.90
2023-04-24T06:37:21.771Z,7.17
2023-04-24T06:39:48.734Z,11.03
2023-04-24T06:42:15.933Z,7.67
2023-04-24T06:44:42.850Z,6.63
2023-04-24T06:47:14.792Z,7.53
2023-04-24T06:49:42.021Z,3.40
2023-04-24T06:52:09.157Z,2.87
2023-04-24T06:54:36.006Z,6.20
2023-04-24T06:57:04.216Z,2.23
2023-04-24T06:59:31.619Z,2.30
2023-04-24T07:01:58.790Z,2.07
2023-04-24T07:04:26.695Z,2.77
2023-04-24T07:06:56.996Z,2.57
2023-04-24T07:09:26.510Z,1.90
2023-04-24T07:11:54.530Z,1.67
2023-04-24T07:14:21.907Z,2.37
2023-04-24T07:16:48.877Z,6.00
2023-04-24T07:19:16.012Z,2.07
2023-04-24T07:21:43.091Z,1.50
2023-04-24T07:24:14.001Z,2.80
2023-04-24T07:26:41.396Z,7.70
2023-04-24T07:29:08.972Z,3.60
2023-04-24T07:31:36.172Z,4.37
2023-04-24T07:34:03.083Z,3.60
2023-04-24T07:36:30.005Z,4.20
2023-04-24T07:38:59.911Z,4.80
2023-04-24T07:41:28.815Z,3.63
2023-04-24T07:43:55.717Z,3.17
2023-04-24T07:46:22.778Z,3.43
2023-04-24T07:48:55.804Z,3.63
2023-04-24T07:51:29.078Z,2.73
2023-04-24T07:53:56.170Z,6.20
2023-04-24T07:56:23.387Z,5.50
2023-04-24T07:58:50.219Z,5.30
2023-04-24T08:01:17.103Z,7.53
2023-04-24T08:03:44.190Z,8.13
2023-04-24T08:06:11.390Z,8.03
2023-04-24T08:08:38.327Z,13.13
2023-04-24T08:11:05.366Z,15.80
2023-04-24T08:13:32.354Z,16.03
2023-04-24T08:15:59.324Z,16.73
2023-04-24T08:18:26.422Z,16.30
2023-04-24T08:20:53.355Z,18.30
2023-04-24T08:23:20.184Z,18.80
2023-04-24T08:25:47.058Z,10.70
2023-04-24T08:28:16.018Z,16.80
2023-04-24T08:30:44.208Z,10.20
2023-04-24T08:33:11.067Z,13.63
2023-04-24T08:35:38.223Z,13.80
2023-04-24T08:38:05.026Z,14.23
2023-04-24T08:40:35.529Z,15.90
2023-04-24T08:43:02.702Z,11.20
2023-04-24T08:45:29.629Z,12.50
2023-04-24T08:47:57.399Z,12.97
2023-04-24T08:50:24.365Z,11.80
2023-04-24T08:52:54.344Z,8.63
2023-04-24T08:55:22.349Z,17.20
2023-04-24T08:57:53.965Z,12.83
2023-04-24T09:00:22.145Z,9.30
2023-04-24T09:02:51.340Z,11.57
2023-04-24T09:05:22.036Z,12.80
2023-04-24T09:07:54.620Z,10.00
2023-04-24T09:10:25.695Z,9.43
2023-04-24T09:12:53.458Z,14.30
2023-04-24T09:15:21.656Z,21.10
2023-04-24T09:17:48.952Z,8.87
2023-04-24T09:20:15.866Z,22.10
2023-04-24T09:22:44.286Z,18.77
2023-04-24T09:25:13.767Z,25.77
2023-04-24T09:27:45.894Z,13.43
2023-04-24T09:30:13.343Z,18.50
2023-04-24T09:32:40.242Z,17.67
2023-04-24T09:35:09.639Z,19.47
2023-04-24T09:37:44.098Z,25.10
2023-04-24T09:40:22.096Z,15.47
2023-04-24T09:42:57.773Z,21.63
2023-04-24T09:45:30.039Z,19.00
2023-04-24T09:47:56.908Z,12.07
2023-04-24T09:50:24.389Z,16.87
2023-04-24T09:53:04.147Z,20.03
2023-04-24T09:55:32.604Z,17.53
2023-04-24T09:58:01.429Z,14.90
2023-04-24T10:00:33.298Z,15.20
2023-04-24T10:03:05.886Z,14.87
2023-04-24T10:05:34.829Z,11.43
2023-04-24T10:08:06.571Z,15.00
2023-04-24T10:10:34.840Z,26.30
2023-04-24T10:13:02.557Z,15.20
2023-04-24T10:15:29.880Z,16.47
2023-04-24T10:18:00.249Z,19.27
2023-04-24T10:20:32.521Z,18.90
2023-04-24T10:23:00.713Z,13.70
2023-04-24T10:25:32.775Z,18.13
2023-04-24T10:28:01.185Z,9.63
2023-04-24T10:30:30.700Z,10.17
2023-04-24T10:32:57.595Z,10.00
2023-04-24T10:35:27.961Z,14.87
2023-04-24T10:38:04.504Z,6.77
2023-04-24T10:40:36.513Z,6.90
2023-04-24T10:43:07.250Z,16.43
2023-04-24T10:45:34.164Z,18.10
2023-04-24T10:48:05.745Z,15.13
2023-04-24T10:50:49.423Z,13.13
2023-04-24T10:53:18.537Z,14.20
2023-04-24T10:55:50.752Z,11.43
2023-04-24T10:58:22.905Z,19.40
2023-04-24T11:01:00.939Z,10.63
2023-04-24T11:03:29.324Z,11.10
2023-04-24T11:06:13.819Z,16.57
2023-04-24T11:08:44.806Z,14.93
2023-04-24T11:11:17.310Z,7.60
2023-04-24T11:13:56.067Z,10.83
2023-04-24T11:16:31.425Z,3.20
2023-04-24T11:19:11.241Z,7.13
2023-04-24T11:21:42.915Z,10.03
2023-04-24T11:24:32.466Z,10.60
2023-04-24T11:27:05.632Z,4.60
2023-04-24T11:29:49.619Z,8.93
2023-04-24T11:32:19.844Z,3.67
2023-04-24T11:34:51.273Z,3.23
2023-04-24T11:37:18.588Z,16.37
2023-04-24T11:39:45.773Z,6.13
2023-04-24T11:42:15.957Z,3.93
2023-04-24T11:44:43.995Z,5.30
2023-04-24T12:03:22.362Z,6.50
2023-04-24T12:05:49.446Z,6.80
2023-04-24T12:08:29.943Z,5.40
2023-04-24T12:10:57.267Z,1.80
2023-04-24T12:13:26.341Z,1.53
2023-04-24T12:15:53.390Z,1.70
2023-04-24T12:18:23.148Z,5.40
2023-04-24T12:20:50.000Z,10.00
2023-04-24T12:23:17.343Z,11.07
2023-04-24T12:25:44.246Z,6.77
2023-04-24T12:28:13.435Z,4.70
2023-04-24T12:30:49.951Z,1.90
2023-04-24T12:33:23.490Z,3.00
2023-04-24T12:35:56.678Z,2.20
2023-04-24T12:38:26.042Z,2.17
2023-04-24T12:41:07.737Z,1.20
2023-04-24T12:43:35.292Z,3.43
2023-04-24T12:46:02.245Z,2.00
2023-04-24T12:48:30.048Z,1.77
2023-04-24T12:51:01.779Z,5.30
2023-04-24T12:53:30.607Z,1.00
2023-04-24T12:55:58.092Z,1.30
2023-04-24T12:58:25.280Z,1.30
2023-04-24T13:00:52.375Z,1.00
2023-04-24T13:03:20.069Z,2.70
2023-04-24T13:05:47.289Z,7.57
2023-04-24T13:08:14.200Z,1.73
2023-04-24T13:10:41.900Z,4.70
2023-04-24T13:13:09.575Z,1.73
2023-04-24T13:15:36.722Z,3.77
2023-04-24T13:18:03.676Z,2.03
2023-04-24T13:20:30.747Z,6.77
2023-04-24T13:22:57.595Z,2.50
2023-04-24T13:25:26.159Z,4.30
2023-04-24T13:27:53.075Z,3.33
2023-04-24T13:30:20.028Z,2.57
2023-04-24T13:32:46.950Z,6.30
2023-04-24T13:35:13.949Z,2.07
2023-04-24T13:37:40.780Z,1.13
2023-04-24T13:40:08.286Z,1.53
2023-04-24T13:42:35.441Z,1.13
2023-04-24T13:45:13.945Z,1.07
2023-04-24T13:47:44.700Z,2.40
2023-04-24T13:50:11.671Z,3.27
2023-04-24T13:52:38.473Z,1.00
2023-04-24T13:55:05.857Z,4.50
2023-04-24T13:57:32.836Z,9.63
2023-04-24T14:00:05.004Z,0.93
2023-04-24T14:05:12.407Z,2.40
2023-04-24T14:07:39.266Z,1.17
2023-04-24T14:10:06.814Z,1.83
2023-04-24T14:12:33.764Z,2.53
2023-04-24T14:15:00.756Z,1.60
2023-04-24T14:17:27.605Z,3.60
2023-04-24T14:19:57.334Z,6.93
2023-04-24T14:22:24.532Z,1.53
2023-04-24T14:24:51.531Z,2.90
2023-04-24T14:27:18.434Z,1.83
2023-04-24T14:29:46.364Z,3.93
2023-04-24T14:32:16.099Z,47.53
2023-04-24T14:34:43.255Z,20.43
2023-04-24T14:37:10.336Z,12.17
2023-04-24T14:39:37.168Z,39.40
2023-04-24T14:42:04.127Z,3.73
2023-04-24T14:44:31.090Z,1.93
2023-04-24T14:46:58.056Z,3.40
2023-04-24T14:49:24.928Z,8.53
2023-04-24T14:51:51.762Z,2.63
2023-04-24T14:54:18.636Z,7.43
2023-04-24T14:56:45.583Z,2.17
2023-04-24T14:59:12.449Z,1.73
2023-04-24T15:01:39.329Z,1.60
2023-04-24T15:04:06.685Z,1.77
2023-04-24T15:06:33.979Z,2.23
2023-04-24T15:09:01.129Z,2.33
2023-04-24T15:11:28.213Z,2.90
2023-04-24T15:13:55.503Z,3.67
2023-04-24T15:16:22.422Z,1.40
2023-04-24T15:18:49.277Z,3.03
2023-04-24T15:21:16.138Z,1.97
2023-04-24T15:23:43.158Z,2.03
2023-04-24T15:26:09.991Z,2.83
2023-04-24T15:28:36.870Z,2.80
2023-04-24T15:31:03.739Z,3.07
2023-04-24T15:33:30.568Z,3.90
2023-04-24T15:35:57.518Z,6.40
2023-04-24T15:38:24.384Z,1.37
2023-04-24T15:40:51.253Z,5.17
2023-04-24T15:43:18.250Z,7.00
2023-04-24T15:45:45.246Z,4.40
2023-04-24T15:48:12.262Z,1.93
2023-04-24T15:50:39.101Z,1.70
2023-04-24T15:53:06.759Z,2.40
2023-04-24T15:55:33.972Z,3.20
2023-04-24T15:58:02.157Z,1.40
2023-04-24T16:00:34.325Z,1.67
2023-04-24T16:03:02.259Z,6.90
2023-04-24T16:05:29.698Z,1.90
2023-04-24T16:07:57.183Z,7.33
2023-04-24T16:10:24.033Z,2.37
2023-04-24T16:12:51.909Z,2.90
2023-04-24T16:15:18.923Z,1.73
2023-04-24T16:17:46.858Z,2.83
2023-04-24T16:20:14.592Z,4.13
2023-04-24T16:22:41.403Z,3.83
2023-04-24T16:25:09.951Z,5.33
2023-04-24T16:27:37.320Z,1.33
2023-04-24T16:30:05.105Z,8.50
2023-04-24T16:32:32.090Z,1.20
2023-04-24T16:34:58.939Z,3.23
2023-04-24T16:37:26.827Z,1.80
2023-04-24T16:39:55.140Z,1.33
2023-04-24T16:42:22.615Z,3.90
2023-04-24T16:44:49.451Z,6.43
2023-04-24T16:47:16.338Z,1.30
2023-04-24T16:49:43.701Z,3.60
2023-04-24T16:52:11.778Z,1.40
2023-04-24T16:54:38.594Z,1.50
2023-04-24T16:57:07.661Z,4.50
2023-04-24T16:59:35.789Z,3.83
2023-04-24T17:02:02.872Z,1.60
2023-04-24T17:04:30.897Z,2.67
2023-04-24T17:06:57.946Z,2.33
2023-04-24T17:09:24.996Z,2.03
2023-04-24T17:11:51.875Z,2.57
2023-04-24T17:14:18.715Z,2.40
2023-04-24T17:16:46.302Z,2.13
2023-04-24T17:19:13.423Z,5.60
2023-04-24T17:21:40.375Z,2.50
2023-04-24T17:24:07.361Z,3.87
2023-04-24T17:26:34.542Z,2.83
2023-04-24T17:29:01.397Z,2.63
2023-04-24T17:31:28.264Z,5.30
2023-04-24T17:33:55.180Z,3.40
2023-04-24T17:36:22.148Z,2.97
2023-04-24T17:38:49.518Z,4.90
2023-04-24T17:41:16.983Z,6.50
2023-04-24T17:43:46.014Z,3.67
2023-04-24T17:46:13.406Z,3.03
2023-04-24T17:48:40.464Z,8.70
2023-04-24T17:51:07.369Z,17.23
2023-04-24T17:53:34.323Z,11.03
2023-04-24T17:56:03.455Z,3.93
2023-04-24T17:58:31.301Z,9.87
2023-04-24T18:00:58.165Z,7.13
2023-04-24T18:03:25.183Z,9.97
2023-04-24T18:05:52.457Z,4.67
2023-04-24T18:08:19.325Z,3.70
2023-04-24T18:10:46.346Z,15.93
2023-04-24T18:13:13.393Z,5.33
2023-04-24T18:15:43.746Z,7.03
2023-04-24T18:18:11.410Z,4.10
2023-04-24T18:20:39.090Z,15.10
2023-04-24T18:23:06.432Z,5.23
2023-04-24T18:25:33.372Z,4.60
2023-04-24T18:28:00.292Z,3.70
2023-04-24T18:30:28.364Z,5.60
2023-04-24T18:32:55.411Z,6.33
2023-04-24T18:35:22.912Z,7.20
2023-04-24T18:37:50.745Z,4.73
2023-04-24T18:40:18.082Z,4.80
2023-04-24T18:42:45.213Z,11.10
2023-04-24T18:45:15.047Z,3.50
2023-04-24T18:47:42.812Z,3.13
2023-04-24T18:50:10.568Z,15.03
2023-04-24T18:52:37.508Z,5.20
2023-04-24T18:55:05.850Z,3.23
2023-04-24T18:57:33.316Z,4.17
2023-04-24T19:00:00.288Z,10.90
2023-04-24T19:05:01.515Z,7.43
2023-04-24T19:07:29.556Z,7.80
2023-04-24T19:09:56.502Z,8.60
2023-04-24T19:12:23.447Z,2.87
2023-04-24T19:14:51.813Z,5.33
2023-04-24T19:17:23.654Z,6.90
2023-04-24T19:19:51.362Z,3.37
2023-04-24T19:22:20.012Z,5.47
2023-04-24T19:24:47.747Z,13.33
2023-04-24T19:27:14.709Z,4.07
2023-04-24T19:29:42.270Z,11.73
2023-04-24T19:32:09.205Z,4.67
2023-04-24T19:34:37.740Z,3.83
2023-04-24T19:37:06.723Z,7.83
2023-04-24T19:39:33.576Z,14.03
2023-04-24T19:42:03.447Z,7.37
2023-04-24T19:44:31.882Z,15.33
2023-04-24T19:46:58.764Z,7.10
2023-04-24T19:49:25.670Z,8.10
2023-04-24T19:51:52.481Z,12.30
2023-04-24T19:54:20.564Z,7.80
2023-04-24T19:56:47.977Z,5.40
2023-04-24T19:59:14.801Z,7.00
2023-04-24T20:01:43.568Z,4.70
2023-04-24T20:04:11.980Z,9.20
2023-04-24T20:06:39.890Z,7.80
2023-04-24T20:09:06.713Z,12.00
2023-04-24T20:11:33.998Z,6.53
2023-04-24T20:14:03.760Z,7.80
2023-04-24T20:16:31.402Z,10.30
2023-04-24T20:18:58.842Z,5.10
2023-04-24T20:21:25.878Z,9.73
2023-04-24T20:23:52.748Z,22.23
2023-04-24T20:26:19.604Z,10.00
2023-04-24T20:28:46.749Z,12.33
2023-04-24T20:31:14.545Z,6.03
2023-04-24T20:33:41.773Z,14.17
2023-04-24T20:36:11.958Z,10.30
2023-04-24T20:38:38.851Z,14.50
2023-04-24T20:41:05.712Z,6.23
2023-04-24T20:43:32.588Z,10.33
2023-04-24T20:45:59.867Z,11.07
2023-04-24T20:48:26.967Z,11.07
2023-04-24T20:50:54.091Z,11.17
2023-04-24T20:53:21.240Z,9.13
2023-04-24T20:55:48.467Z,15.20
2023-04-24T20:58:17.006Z,15.77
2023-04-24T21:00:43.974Z,10.90
2023-04-24T21:03:10.984Z,17.20
2023-04-24T21:05:37.850Z,8.10
2023-04-24T21:08:04.825Z,13.07
2023-04-24T21:10:31.722Z,11.40
2023-04-24T21:12:58.538Z,12.97
2023-04-24T21:15:25.454Z,13.70
2023-04-24T21:17:52.329Z,17.40
2023-04-24T21:20:19.378Z,12.50
2023-04-24T21:22:46.177Z,15.73
2023-04-24T21:25:12.986Z,12.93
2023-04-24T21:27:41.096Z,16.20
2023-04-24T21:30:08.632Z,7.93
2023-04-24T21:32:35.628Z,7.73
2023-04-24T21:35:02.540Z,13.50
2023-04-24T21:37:29.408Z,14.33
2023-04-24T21:39:56.235Z,11.80
2023-04-24T21:42:23.127Z,17.53
2023-04-24T21:44:50.223Z,22.20
2023-04-24T21:47:17.892Z,10.77
2023-04-24T21:49:47.659Z,14.67
2023-04-24T21:52:14.641Z,10.73
2023-04-24T21:54:41.909Z,7.80
2023-04-24T21:57:08.829Z,10.10
2023-04-24T21:59:35.773Z,15.53
2023-04-24T22:02:02.734Z,8.57
2023-04-24T22:04:29.635Z,11.40
2023-04-24T22:06:57.483Z,13.10
2023-04-24T22:09:24.562Z,12.40
2023-04-24T22:11:51.770Z,21.43
2023-04-24T22:14:18.677Z,9.97
2023-04-24T22:16:47.920Z,16.77
2023-04-24T22:19:15.013Z,7.77
2023-04-24T22:21:42.350Z,15.80
2023-04-24T22:24:09.945Z,12.10
2023-04-24T22:26:36.764Z,14.07
2023-04-24T22:29:03.739Z,10.27
2023-04-24T22:31:30.995Z,13.13
2023-04-24T22:33:57.938Z,16.93
2023-04-24T22:36:24.759Z,10.53
2023-04-24T22:38:51.783Z,12.53
2023-04-24T22:41:18.917Z,18.00
2023-04-24T22:43:47.026Z,14.00
2023-04-24T22:46:14.005Z,15.93
2023-04-24T22:48:41.097Z,10.77
2023-04-24T22:51:08.001Z,9.60
2023-04-24T22:53:36.335Z,13.20
2023-04-24T22:56:03.420Z,14.50
2023-04-24T22:58:30.283Z,9.43
2023-04-24T23:00:57.185Z,16.13
2023-04-24T23:03:25.103Z,18.57
2023-04-24T23:05:52.411Z,9.70
2023-04-24T23:08:19.521Z,12.53
2023-04-24T23:10:46.393Z,12.13
2023-04-24T23:13:13.279Z,16.97
2023-04-24T23:15:40.302Z,17.90
2023-04-24T23:18:07.188Z,10.10
2023-04-24T23:20:34.070Z,19.50
2023-04-24T23:23:01.996Z,13.93
2023-04-24T23:25:29.158Z,9.63
2023-04-24T23:27:56.502Z,11.17
2023-04-24T23:30:23.470Z,14.23
2023-04-24T23:32:50.311Z,14.43
2023-04-24T23:35:17.230Z,14.00
2023-04-24T23:37:44.166Z,11.07
2023-04-24T23:40:11.208Z,17.93
2023-04-24T23:42:40.836Z,10.60
2023-04-24T23:45:08.283Z,21.47
2023-04-24T23:47:35.075Z,22.53
2023-04-24T23:50:02.959Z,18.70
2023-04-24T23:52:29.917Z,13.37
2023-04-24T23:54:56.732Z,11.70
2023-04-24T23:57:24.017Z,16.20
2023-04-24T23:59:50.932Z,9.67
